createdAt,value
2023-05-09T00:00:48.685Z,16.70
2023-05-09T00:03:15.550Z,17.05
2023-05-09T00:05:43.143Z,16.60
2023-05-09T00:08:11.465Z,17.52
2023-05-09T00:10:40.577Z,17.92
2023-05-09T00:13:07.353Z,18.40
2023-05-09T00:15:34.363Z,18.95
2023-05-09T00:18:01.017Z,15.95
2023-05-09T00:20:27.580Z,18.33
2023-05-09T00:22:54.188Z,18.90
2023-05-09T00:25:20.815Z,18.60
2023-05-09T00:27:47.555Z,19.08
2023-05-09T00:30:15.343Z,17.40
2023-05-09T00:32:42.510Z,19.67
2023-05-09T00:35:09.924Z,17.92
2023-05-09T00:37:36.770Z,18.20
2023-05-09T00:40:05.253Z,18.63
2023-05-09T00:42:35.903Z,19.73
2023-05-09T00:47:32.460Z,18.83
2023-05-09T00:49:59.679Z,22.80
2023-05-09T00:52:26.955Z,21.83
2023-05-09T00:54:55.720Z,21.88
2023-05-09T00:57:24.582Z,22.95
2023-05-09T00:59:53.092Z,20.60
2023-05-09T01:02:22.783Z,20.83
2023-05-09T01:04:49.913Z,21.10
2023-05-09T01:07:29.350Z,21.25
2023-05-09T01:10:05.350Z,21.25
2023-05-09T01:12:46.266Z,21.45
2023-05-09T01:15:33.470Z,21.33
2023-05-09T01:18:11.617Z,22.50
2023-05-09T01:20:42.573Z,22.65
2023-05-09T01:23:12.303Z,23.55
2023-05-09T01:26:16.153Z,22.45
2023-05-09T01:29:10.859Z,22.40
2023-05-09T01:31:42.232Z,22.95
2023-05-09T01:34:11.696Z,22.33
2023-05-09T01:36:40.482Z,22.05
2023-05-09T01:39:11.898Z,22.70
2023-05-09T01:41:39.208Z,22.25
2023-05-09T01:44:13.962Z,20.08
2023-05-09T01:46:41.329Z,20.80
2023-05-09T01:49:08.904Z,21.17
2023-05-09T01:51:38.078Z,20.35
2023-05-09T01:54:07.393Z,21.08
2023-05-09T01:56:36.658Z,20.90
2023-05-09T01:59:04.233Z,20.67
2023-05-09T02:01:31.458Z,21.27
2023-05-09T02:03:59.097Z,19.10
2023-05-09T02:06:26.325Z,20.20
2023-05-09T02:08:53.066Z,21.52
2023-05-09T02:11:20.938Z,21.73
2023-05-09T02:13:47.441Z,20.38
2023-05-09T02:16:14.274Z,21.02
2023-05-09T02:18:40.859Z,22.05
2023-05-09T02:21:07.495Z,21.08
2023-05-09T02:23:36.301Z,21.17
2023-05-09T02:26:03.515Z,22.33
2023-05-09T02:28:30.810Z,21.73
2023-05-09T02:31:00.673Z,21.48
2023-05-09T02:33:28.161Z,21.77
2023-05-09T02:35:56.130Z,21.98
2023-05-09T02:38:23.432Z,19.65
2023-05-09T02:40:52.722Z,21.63
2023-05-09T02:43:19.349Z,22.33
2023-05-09T02:45:45.906Z,20.98
2023-05-09T02:48:12.382Z,21.25
2023-05-09T02:50:38.984Z,22.17
2023-05-09T02:53:05.831Z,19.88
2023-05-09T02:55:32.423Z,21.30
2023-05-09T02:58:11.889Z,21.02
2023-05-09T03:00:39.834Z,20.45
2023-05-09T03:03:06.852Z,21.00
2023-05-09T03:05:33.368Z,21.50
2023-05-09T03:07:59.905Z,20.17
2023-05-09T03:10:27.541Z,18.48
2023-05-09T03:12:55.422Z,19.70
2023-05-09T03:15:24.913Z,19.70
2023-05-09T03:17:51.435Z,20.73
2023-05-09T03:20:19.430Z,19.60
2023-05-09T03:22:46.747Z,19.77
2023-05-09T03:25:17.247Z,20.15
2023-05-09T03:27:43.929Z,20.77
2023-05-09T03:30:11.065Z,19.05
2023-05-09T03:32:37.607Z,20.23
2023-05-09T03:35:04.378Z,18.95
2023-05-09T03:37:32.700Z,20.33
2023-05-09T03:39:59.710Z,19.00
2023-05-09T03:42:26.257Z,21.73
2023-05-09T03:44:53.245Z,20.75
2023-05-09T03:47:20.042Z,20.55
2023-05-09T03:49:46.551Z,21.70
2023-05-09T03:52:13.550Z,22.67
2023-05-09T03:54:40.090Z,21.60
2023-05-09T03:57:06.712Z,19.48
2023-05-09T03:59:33.275Z,21.60
2023-05-09T04:02:00.339Z,20.90
2023-05-09T04:04:26.989Z,22.75
2023-05-09T04:06:53.721Z,22.17
2023-05-09T04:09:21.645Z,22.13
2023-05-09T04:11:48.234Z,21.48
2023-05-09T04:14:14.733Z,20.27
2023-05-09T04:16:42.325Z,17.50
2023-05-09T04:19:08.955Z,19.05
2023-05-09T04:21:35.466Z,19.45
2023-05-09T04:24:02.202Z,19.33
2023-05-09T04:26:28.981Z,21.02
2023-05-09T04:28:55.913Z,20.73
2023-05-09T04:31:22.931Z,22.92
2023-05-09T04:33:49.931Z,21.60
2023-05-09T04:36:16.429Z,21.40
2023-05-09T04:38:43.343Z,22.02
2023-05-09T04:41:10.161Z,21.00
2023-05-09T04:43:36.677Z,19.73
2023-05-09T04:46:06.742Z,20.30
2023-05-09T04:48:33.305Z,19.55
2023-05-09T04:51:05.002Z,21.20
2023-05-09T04:53:31.852Z,20.58
2023-05-09T04:56:00.063Z,20.58
2023-05-09T04:58:31.379Z,18.90
2023-05-09T05:00:58.254Z,20.52
2023-05-09T05:03:25.157Z,17.77
2023-05-09T05:05:51.816Z,21.88
2023-05-09T05:08:18.788Z,20.38
2023-05-09T05:10:45.774Z,21.63
2023-05-09T05:13:12.686Z,21.20
2023-05-09T05:15:39.237Z,20.00
2023-05-09T05:18:05.881Z,23.02
2023-05-09T05:20:32.735Z,22.88
2023-05-09T05:22:59.843Z,23.50
2023-05-09T05:25:27.355Z,22.73
2023-05-09T05:27:53.961Z,23.75
2023-05-09T05:30:20.629Z,23.50
2023-05-09T05:32:47.350Z,22.45
2023-05-09T05:35:14.217Z,21.73
2023-05-09T05:37:41.608Z,20.98
2023-05-09T05:40:08.938Z,20.77
2023-05-09T05:42:35.522Z,24.20
2023-05-09T05:45:02.573Z,24.40
2023-05-09T05:47:29.249Z,24.73
2023-05-09T05:49:56.353Z,26.00
2023-05-09T05:52:23.086Z,24.90
2023-05-09T05:54:49.912Z,24.73
2023-05-09T05:57:16.366Z,26.13
2023-05-09T05:59:43.091Z,27.75
2023-05-09T06:02:09.814Z,25.23
2023-05-09T06:04:36.816Z,25.52
2023-05-09T06:07:03.732Z,24.60
2023-05-09T06:09:30.420Z,24.10
2023-05-09T06:11:57.244Z,26.13
2023-05-09T06:14:23.758Z,24.95
2023-05-09T06:16:53.247Z,25.08
2023-05-09T06:19:20.296Z,24.95
2023-05-09T06:21:46.801Z,26.08
2023-05-09T06:24:23.411Z,24.88
2023-05-09T06:26:55.142Z,23.60
2023-05-09T06:29:21.907Z,21.95
2023-05-09T06:31:48.557Z,25.20
2023-05-09T06:34:15.460Z,23.45
2023-05-09T06:36:42.135Z,24.13
2023-05-09T06:39:09.870Z,24.75
2023-05-09T06:41:36.678Z,23.95
2023-05-09T06:44:03.363Z,24.65
2023-05-09T06:46:30.059Z,23.33
2023-05-09T06:48:56.679Z,24.58
2023-05-09T06:51:23.244Z,25.13
2023-05-09T06:53:50.613Z,22.13
2023-05-09T06:56:18.386Z,23.63
2023-05-09T06:58:47.988Z,23.55
2023-05-09T07:01:14.587Z,24.30
2023-05-09T07:03:41.154Z,23.55
2023-05-09T07:06:10.488Z,23.48
2023-05-09T07:08:40.059Z,24.27
2023-05-09T07:11:06.936Z,24.77
2023-05-09T07:13:33.583Z,22.73
2023-05-09T07:16:01.285Z,25.27
2023-05-09T07:18:28.185Z,25.17
2023-05-09T07:20:54.960Z,24.48
2023-05-09T07:23:22.247Z,26.70
2023-05-09T07:25:48.825Z,22.77
2023-05-09T07:28:15.372Z,23.20
2023-05-09T07:30:44.090Z,23.45
2023-05-09T07:33:11.467Z,24.58
2023-05-09T07:35:38.211Z,23.20
2023-05-09T07:38:05.082Z,22.20
2023-05-09T07:40:31.686Z,22.73
2023-05-09T07:42:58.647Z,22.63
2023-05-09T07:45:25.354Z,22.25
2023-05-09T07:47:51.929Z,22.55
2023-05-09T07:50:18.604Z,23.15
2023-05-09T07:52:45.904Z,21.80
2023-05-09T07:55:13.037Z,21.48
2023-05-09T07:57:42.836Z,20.77
2023-05-09T08:00:11.496Z,19.80
2023-05-09T08:02:38.509Z,20.50
2023-05-09T08:05:05.916Z,20.90
2023-05-09T08:07:32.494Z,20.58
2023-05-09T08:09:59.062Z,20.50
2023-05-09T08:12:25.883Z,20.83
2023-05-09T08:14:52.469Z,20.75
2023-05-09T08:17:18.995Z,20.15
2023-05-09T08:19:46.205Z,20.02
2023-05-09T08:22:20.242Z,20.65
2023-05-09T08:24:47.877Z,19.50
2023-05-09T08:27:16.032Z,19.17
2023-05-09T08:29:44.544Z,18.45
2023-05-09T08:32:11.078Z,19.77
2023-05-09T08:34:37.945Z,17.77
2023-05-09T08:37:05.561Z,20.38
2023-05-09T08:39:32.986Z,19.02
2023-05-09T08:42:01.210Z,18.52
2023-05-09T08:44:30.418Z,17.88
2023-05-09T08:47:05.831Z,17.75
2023-05-09T08:49:33.727Z,18.10
2023-05-09T08:52:00.375Z,17.40
2023-05-09T08:54:28.058Z,16.70
2023-05-09T08:56:55.499Z,16.15
2023-05-09T08:59:22.868Z,14.85
2023-05-09T09:01:50.397Z,17.95
2023-05-09T09:04:18.441Z,14.52
2023-05-09T09:06:47.781Z,16.33
2023-05-09T09:09:16.816Z,16.90
2023-05-09T09:11:44.736Z,14.90
2023-05-09T09:14:14.666Z,14.80
2023-05-09T09:16:43.710Z,15.60
2023-05-09T09:19:13.500Z,13.75
2023-05-09T09:21:45.060Z,13.63
2023-05-09T09:24:15.353Z,13.77
2023-05-09T09:26:47.490Z,14.15
2023-05-09T09:29:15.712Z,14.60
2023-05-09T09:31:46.829Z,12.88
2023-05-09T09:34:21.074Z,12.32
2023-05-09T09:36:47.818Z,13.23
2023-05-09T09:39:15.027Z,13.50
2023-05-09T09:41:41.773Z,12.50
2023-05-09T09:44:16.386Z,11.60
2023-05-09T09:46:54.275Z,12.18
2023-05-09T09:49:27.187Z,12.23
2023-05-09T09:52:01.688Z,9.13
2023-05-09T09:54:32.115Z,8.40
2023-05-09T09:56:58.748Z,7.18
2023-05-09T09:59:27.120Z,7.32
2023-05-09T10:02:07.867Z,6.47
2023-05-09T10:04:37.041Z,6.43
2023-05-09T10:07:08.790Z,7.13
2023-05-09T10:09:35.766Z,5.63
2023-05-09T10:12:04.461Z,5.93
2023-05-09T10:14:35.003Z,6.70
2023-05-09T10:17:05.428Z,6.35
2023-05-09T10:19:33.774Z,7.82
2023-05-09T10:22:08.424Z,7.43
2023-05-09T10:24:51.704Z,6.80
2023-05-09T10:27:23.141Z,6.15
2023-05-09T10:29:54.756Z,6.28
2023-05-09T10:32:34.263Z,6.55
2023-05-09T10:35:06.694Z,8.87
2023-05-09T10:37:33.868Z,7.70
2023-05-09T10:40:03.278Z,9.60
2023-05-09T10:42:30.402Z,9.85
2023-05-09T10:44:57.528Z,10.48
2023-05-09T10:47:26.650Z,12.13
2023-05-09T10:49:55.582Z,11.57
2023-05-09T10:52:24.073Z,9.98
2023-05-09T10:55:03.161Z,9.05
2023-05-09T10:57:31.546Z,8.27
2023-05-09T10:59:59.360Z,9.90
2023-05-09T11:02:26.197Z,10.57
2023-05-09T11:05:16.255Z,8.88
2023-05-09T11:07:43.426Z,11.88
2023-05-09T11:10:17.728Z,10.05
2023-05-09T11:12:57.571Z,10.18
2023-05-09T11:18:05.407Z,11.00
2023-05-09T11:20:34.785Z,8.95
2023-05-09T11:23:05.080Z,8.82
2023-05-09T11:28:01.118Z,8.43
2023-05-09T11:30:42.828Z,8.93
2023-05-09T11:33:23.339Z,8.48
2023-05-09T11:36:19.138Z,9.18
2023-05-09T11:38:47.468Z,8.95
2023-05-09T11:41:14.789Z,8.85
2023-05-09T11:43:43.561Z,7.82
2023-05-09T11:46:14.427Z,6.78
2023-05-09T11:48:41.383Z,8.63
2023-05-09T11:51:08.328Z,8.25
2023-05-09T11:53:35.324Z,8.77
2023-05-09T11:56:03.863Z,7.40
2023-05-09T11:58:31.053Z,9.27
2023-05-09T12:00:58.317Z,6.93
2023-05-09T12:03:25.114Z,7.93
2023-05-09T12:05:54.553Z,7.53
2023-05-09T12:08:22.112Z,7.47
2023-05-09T12:10:48.743Z,6.97
2023-05-09T12:13:18.476Z,7.63
2023-05-09T12:15:46.010Z,7.85
2023-05-09T12:18:13.433Z,7.07
2023-05-09T12:20:45.947Z,6.40
2023-05-09T12:23:16.163Z,5.90
2023-05-09T12:25:52.933Z,5.82
2023-05-09T12:28:27.735Z,5.03
2023-05-09T12:30:56.029Z,4.07
2023-05-09T12:33:23.616Z,3.25
2023-05-09T12:36:12.800Z,3.40
2023-05-09T12:38:40.031Z,3.45
2023-05-09T12:41:22.327Z,2.95
2023-05-09T12:44:01.543Z,3.67
2023-05-09T12:46:28.544Z,3.90
2023-05-09T12:48:59.156Z,4.30
2023-05-09T12:51:27.488Z,3.65
2023-05-09T12:53:54.066Z,4.05
2023-05-09T12:56:21.478Z,4.07
2023-05-09T12:58:53.453Z,4.10
2023-05-09T13:01:22.863Z,3.45
2023-05-09T13:04:04.073Z,3.87
2023-05-09T13:06:31.226Z,3.83
2023-05-09T13:09:03.111Z,3.40
2023-05-09T13:11:35.084Z,3.88
2023-05-09T13:14:06.076Z,3.78
2023-05-09T13:16:35.140Z,3.60
2023-05-09T13:19:02.359Z,3.58
2023-05-09T13:21:29.367Z,3.20
2023-05-09T13:23:55.862Z,3.70
2023-05-09T13:26:23.987Z,3.22
2023-05-09T13:28:50.527Z,3.22
2023-05-09T13:31:19.148Z,3.38
2023-05-09T13:33:46.013Z,3.13
2023-05-09T13:36:12.671Z,2.70
2023-05-09T13:38:39.621Z,3.40
2023-05-09T13:41:10.152Z,3.13
2023-05-09T13:43:37.437Z,3.35
2023-05-09T13:46:04.127Z,3.38
2023-05-09T13:48:33.795Z,3.70
2023-05-09T13:51:00.613Z,3.58
2023-05-09T13:53:27.126Z,3.80
2023-05-09T13:55:53.901Z,3.33
2023-05-09T13:58:20.865Z,3.90
2023-05-09T14:00:47.553Z,3.30
2023-05-09T14:03:14.494Z,4.07
2023-05-09T14:05:42.199Z,3.42
2023-05-09T14:08:09.791Z,3.25
2023-05-09T14:10:36.689Z,3.80
2023-05-09T14:13:03.335Z,3.85
2023-05-09T14:15:33.111Z,3.10
2023-05-09T14:17:59.697Z,3.67
2023-05-09T14:20:26.429Z,3.47
2023-05-09T14:22:55.908Z,3.22
2023-05-09T14:25:23.944Z,2.93
2023-05-09T14:27:51.616Z,2.58
2023-05-09T14:30:18.120Z,2.55
2023-05-09T14:32:44.984Z,2.50
2023-05-09T14:35:11.838Z,2.40
2023-05-09T14:37:38.616Z,2.22
2023-05-09T14:40:07.030Z,2.55
2023-05-09T14:42:33.541Z,3.60
2023-05-09T14:45:00.947Z,3.22
2023-05-09T14:47:27.607Z,3.40
2023-05-09T14:49:54.267Z,3.53
2023-05-09T14:52:21.955Z,3.60
2023-05-09T14:54:50.270Z,4.10
2023-05-09T14:57:16.882Z,3.53
2023-05-09T14:59:43.978Z,3.72
2023-05-09T15:02:11.649Z,3.50
2023-05-09T15:04:38.550Z,3.55
2023-05-09T15:07:05.035Z,3.60
2023-05-09T15:09:31.962Z,3.72
2023-05-09T15:11:58.763Z,4.03
2023-05-09T15:14:25.283Z,3.67
2023-05-09T15:16:52.734Z,2.95
2023-05-09T15:19:19.754Z,3.03
2023-05-09T15:21:46.678Z,3.17
2023-05-09T15:24:15.913Z,3.10
2023-05-09T15:26:43.492Z,3.42
2023-05-09T15:29:10.117Z,3.03
2023-05-09T15:31:37.726Z,3.65
2023-05-09T15:34:04.555Z,2.97
2023-05-09T15:36:32.747Z,3.28
2023-05-09T15:38:59.699Z,4.05
2023-05-09T15:41:26.466Z,3.05
2023-05-09T15:43:53.025Z,3.80
2023-05-09T15:46:20.121Z,2.38
2023-05-09T15:48:55.389Z,2.28
2023-05-09T15:51:24.515Z,2.20
2023-05-09T15:53:51.427Z,2.10
2023-05-09T15:56:19.157Z,2.22
2023-05-09T15:58:45.996Z,2.10
2023-05-09T16:01:15.462Z,1.67
2023-05-09T16:03:43.846Z,2.00
2023-05-09T16:06:10.987Z,1.85
2023-05-09T16:08:37.789Z,2.45
2023-05-09T16:11:04.964Z,2.00
2023-05-09T16:13:35.782Z,1.90
2023-05-09T16:16:02.870Z,2.38
2023-05-09T16:18:29.548Z,2.00
2023-05-09T16:20:56.561Z,2.33
2023-05-09T16:23:23.857Z,2.25
2023-05-09T16:25:50.799Z,1.77
2023-05-09T16:28:17.810Z,2.35
2023-05-09T16:30:44.494Z,2.05
2023-05-09T16:33:11.496Z,2.10
2023-05-09T16:35:38.623Z,2.30
2023-05-09T16:38:05.732Z,2.20
2023-05-09T16:40:32.526Z,2.67
2023-05-09T16:42:59.225Z,3.05
2023-05-09T16:45:25.957Z,2.83
2023-05-09T16:47:52.649Z,3.45
2023-05-09T16:50:19.283Z,3.95
2023-05-09T16:52:46.164Z,4.18
2023-05-09T16:55:12.873Z,3.30
2023-05-09T16:57:40.383Z,3.20
2023-05-09T17:00:08.516Z,2.85
2023-05-09T17:02:41.439Z,3.40
2023-05-09T17:05:08.362Z,3.33
2023-05-09T17:07:35.106Z,3.60
2023-05-09T17:10:01.753Z,3.28
2023-05-09T17:12:28.591Z,3.00
2023-05-09T17:14:55.169Z,4.43
2023-05-09T17:17:21.722Z,4.45
2023-05-09T17:19:48.278Z,4.25
2023-05-09T17:22:14.911Z,3.95
2023-05-09T17:24:41.668Z,4.18
2023-05-09T17:27:08.339Z,4.15
2023-05-09T17:29:35.315Z,2.55
2023-05-09T17:32:03.424Z,3.20
2023-05-09T17:34:31.088Z,2.33
2023-05-09T17:36:59.457Z,2.78
2023-05-09T17:39:25.974Z,2.83
2023-05-09T17:41:52.902Z,2.65
2023-05-09T17:44:19.485Z,2.75
2023-05-09T17:46:49.335Z,2.83
2023-05-09T17:49:16.208Z,3.58
2023-05-09T17:51:43.345Z,2.00
2023-05-09T17:54:10.842Z,2.70
2023-05-09T17:56:37.389Z,2.03
2023-05-09T17:59:03.945Z,2.17
2023-05-09T18:01:31.292Z,2.60
2023-05-09T18:03:59.066Z,3.58
2023-05-09T18:06:25.876Z,3.10
2023-05-09T18:08:59.884Z,3.30
2023-05-09T18:11:26.410Z,3.35
2023-05-09T18:13:53.102Z,3.67
2023-05-09T18:16:19.617Z,3.70
2023-05-09T18:18:46.629Z,4.13
2023-05-09T18:21:13.254Z,6.55
2023-05-09T18:23:52.837Z,5.10
2023-05-09T18:26:20.965Z,3.30
2023-05-09T18:28:54.592Z,3.45
2023-05-09T18:31:27.237Z,3.20
2023-05-09T18:33:55.872Z,3.22
2023-05-09T18:36:23.501Z,3.05
2023-05-09T18:38:51.676Z,4.00
2023-05-09T18:41:23.065Z,3.63
2023-05-09T18:43:51.610Z,4.30
2023-05-09T18:46:21.831Z,4.13
2023-05-09T18:48:52.904Z,4.13
2023-05-09T18:51:20.153Z,5.05
2023-05-09T18:53:47.205Z,4.15
2023-05-09T18:56:14.325Z,2.95
2023-05-09T18:58:40.940Z,2.58
2023-05-09T19:01:09.770Z,3.50
2023-05-09T19:03:36.429Z,2.95
2023-05-09T19:06:03.431Z,2.95
2023-05-09T19:08:34.309Z,3.53
2023-05-09T19:11:01.176Z,3.78
2023-05-09T19:13:28.168Z,3.17
2023-05-09T19:15:54.892Z,3.47
2023-05-09T19:18:21.391Z,3.05
2023-05-09T19:20:48.120Z,3.72
2023-05-09T19:23:15.340Z,3.65
2023-05-09T19:25:41.918Z,3.92
2023-05-09T19:28:08.735Z,4.47
2023-05-09T19:30:36.033Z,4.53
2023-05-09T19:33:02.827Z,4.60
2023-05-09T19:35:29.780Z,4.72
2023-05-09T19:37:56.550Z,3.80
2023-05-09T19:40:23.398Z,4.72
2023-05-09T19:42:52.959Z,5.78
2023-05-09T19:45:20.066Z,5.35
2023-05-09T19:47:46.580Z,5.90
2023-05-09T19:50:17.428Z,6.35
2023-05-09T19:52:44.352Z,5.75
2023-05-09T19:55:12.634Z,6.07
2023-05-09T19:57:40.293Z,5.82
2023-05-09T20:00:09.055Z,5.53
2023-05-09T20:02:35.611Z,4.68
2023-05-09T20:05:02.646Z,5.40
2023-05-09T20:07:32.097Z,5.20
2023-05-09T20:09:58.671Z,5.10
2023-05-09T20:12:30.251Z,5.10
2023-05-09T20:14:58.590Z,4.97
2023-05-09T20:17:26.566Z,4.25
2023-05-09T20:19:53.592Z,4.07
2023-05-09T20:22:22.386Z,4.00
2023-05-09T20:24:49.012Z,5.25
2023-05-09T20:27:15.405Z,4.90
2023-05-09T20:29:43.220Z,5.05
2023-05-09T20:32:10.997Z,4.75
2023-05-09T20:34:38.144Z,4.68
2023-05-09T20:37:04.775Z,4.13
2023-05-09T20:39:33.340Z,4.03
2023-05-09T20:42:01.679Z,4.35
2023-05-09T20:44:34.011Z,3.58
2023-05-09T20:47:00.669Z,4.13
2023-05-09T20:49:33.820Z,3.90
2023-05-09T20:52:01.225Z,3.67
2023-05-09T20:54:28.290Z,3.75
2023-05-09T20:56:56.919Z,3.83
2023-05-09T20:59:23.505Z,3.67
2023-05-09T21:01:52.644Z,3.35
2023-05-09T21:04:19.465Z,4.60
2023-05-09T21:06:46.001Z,4.13
2023-05-09T21:09:12.543Z,3.70
2023-05-09T21:11:40.646Z,4.00
2023-05-09T21:14:08.971Z,4.00
2023-05-09T21:16:35.734Z,4.32
2023-05-09T21:19:05.384Z,3.53
2023-05-09T21:21:32.856Z,4.22
2023-05-09T21:24:00.153Z,3.92
2023-05-09T21:26:26.985Z,4.28
2023-05-09T21:28:53.540Z,3.67
2023-05-09T21:31:20.169Z,3.42
2023-05-09T21:33:46.629Z,3.42
2023-05-09T21:36:14.116Z,3.22
2023-05-09T21:38:40.950Z,2.88
2023-05-09T21:41:07.717Z,3.17
2023-05-09T21:43:35.560Z,2.97
2023-05-09T21:46:05.433Z,3.22
2023-05-09T21:48:32.224Z,3.08
2023-05-09T21:51:04.490Z,3.20
2023-05-09T21:53:30.994Z,3.05
2023-05-09T21:55:57.558Z,3.45
2023-05-09T21:58:24.232Z,2.80
2023-05-09T22:00:51.379Z,2.88
2023-05-09T22:03:18.024Z,3.33
2023-05-09T22:05:44.636Z,4.03
2023-05-09T22:08:11.273Z,3.60
2023-05-09T22:10:38.004Z,4.03
2023-05-09T22:13:04.997Z,3.55
2023-05-09T22:15:31.519Z,3.22
2023-05-09T22:17:58.168Z,3.50
2023-05-09T22:20:24.998Z,3.42
2023-05-09T22:22:51.720Z,3.15
2023-05-09T22:25:18.379Z,3.63
2023-05-09T22:27:45.213Z,3.10
2023-05-09T22:30:12.563Z,3.25
2023-05-09T22:32:41.417Z,3.38
2023-05-09T22:35:09.132Z,3.17
2023-05-09T22:37:36.738Z,2.97
2023-05-09T22:40:03.851Z,3.20
2023-05-09T22:42:30.672Z,3.05
2023-05-09T22:44:57.718Z,2.05
2023-05-09T22:47:24.672Z,2.00
2023-05-09T22:49:51.194Z,2.22
2023-05-09T22:52:18.031Z,2.50
2023-05-09T22:54:44.910Z,2.10
2023-05-09T22:57:12.411Z,2.47
2023-05-09T22:59:38.950Z,2.00
2023-05-09T23:02:05.383Z,1.80
2023-05-09T23:04:31.924Z,1.95
2023-05-09T23:06:58.515Z,1.92
2023-05-09T23:09:25.270Z,1.92
2023-05-09T23:11:51.771Z,1.77
2023-05-09T23:14:18.787Z,2.30
2023-05-09T23:16:45.451Z,1.65
2023-05-09T23:19:11.857Z,1.70
2023-05-09T23:21:38.653Z,1.77
2023-05-09T23:24:06.051Z,1.98
2023-05-09T23:26:32.849Z,1.55
2023-05-09T23:28:59.661Z,1.73
2023-05-09T23:31:26.517Z,1.50
2023-05-09T23:33:53.348Z,1.50
2023-05-09T23:36:19.803Z,1.70
2023-05-09T23:38:46.266Z,1.48
2023-05-09T23:41:12.993Z,1.60
2023-05-09T23:43:39.625Z,1.75
2023-05-09T23:46:06.513Z,1.90
2023-05-09T23:48:33.343Z,1.40
2023-05-09T23:50:59.955Z,1.80
2023-05-09T23:53:29.366Z,2.00
2023-05-09T23:55:56.099Z,2.15
2023-05-09T23:58:22.891Z,1.60
